sensor_id;sensor_type;location;lat;lon;timestamp;temperature;humidity
12426;DHT22;6277;49.824;9.562;2022-09-23T00:00:44;8.90;58.40
12426;DHT22;6277;49.824;9.562;2022-09-23T00:03:10;8.90;58.50
12426;DHT22;6277;49.824;9.562;2022-09-23T00:05:36;8.90;58.70
12426;DHT22;6277;49.824;9.562;2022-09-23T00:08:03;8.90;58.80
12426;DHT22;6277;49.824;9.562;2022-09-23T00:10:29;8.90;58.90
12426;DHT22;6277;49.824;9.562;2022-09-23T00:12:57;8.90;58.90
12426;DHT22;6277;49.824;9.562;2022-09-23T00:15:23;8.90;58.80
12426;DHT22;6277;49.824;9.562;2022-09-23T00:17:50;9.00;58.90
12426;DHT22;6277;49.824;9.562;2022-09-23T00:20:16;8.90;58.80
12426;DHT22;6277;49.824;9.562;2022-09-23T00:22:42;9.00;58.90
12426;DHT22;6277;49.824;9.562;2022-09-23T00:25:09;8.90;58.90
12426;DHT22;6277;49.824;9.562;2022-09-23T00:27:35;8.90;58.90
12426;DHT22;6277;49.824;9.562;2022-09-23T00:30:02;8.90;58.90
12426;DHT22;6277;49.824;9.562;2022-09-23T00:32:28;8.90;58.90
12426;DHT22;6277;49.824;9.562;2022-09-23T00:34:54;8.90;59.00
12426;DHT22;6277;49.824;9.562;2022-09-23T00:37:20;8.80;59.00
12426;DHT22;6277;49.824;9.562;2022-09-23T00:39:45;8.80;59.20
12426;DHT22;6277;49.824;9.562;2022-09-23T00:42:16;8.80;59.90
12426;DHT22;6277;49.824;9.562;2022-09-23T00:44:50;8.80;59.70
12426;DHT22;6277;49.824;9.562;2022-09-23T00:47:23;8.90;59.50
12426;DHT22;6277;49.824;9.562;2022-09-23T00:52:38;8.90;60.00
12426;DHT22;6277;49.824;9.562;2022-09-23T00:55:08;8.90;59.60
12426;DHT22;6277;49.824;9.562;2022-09-23T00:57:35;8.90;59.90
12426;DHT22;6277;49.824;9.562;2022-09-23T01:00:04;8.90;59.80
12426;DHT22;6277;49.824;9.562;2022-09-23T01:02:31;8.90;59.90
12426;DHT22;6277;49.824;9.562;2022-09-23T01:04:57;8.90;59.80
12426;DHT22;6277;49.824;9.562;2022-09-23T01:07:23;8.90;59.90
12426;DHT22;6277;49.824;9.562;2022-09-23T01:09:49;8.90;59.90
12426;DHT22;6277;49.824;9.562;2022-09-23T01:12:43;8.90;59.90
12426;DHT22;6277;49.824;9.562;2022-09-23T01:15:35;8.90;60.80
12426;DHT22;6277;49.824;9.562;2022-09-23T01:21:09;8.90;60.60
12426;DHT22;6277;49.824;9.562;2022-09-23T01:31:48;8.90;60.00
12426;DHT22;6277;49.824;9.562;2022-09-23T01:43:03;8.80;61.00
12426;DHT22;6277;49.824;9.562;2022-09-23T01:45:51;8.80;60.10
12426;DHT22;6277;49.824;9.562;2022-09-23T01:54:52;8.70;60.90
12426;DHT22;6277;49.824;9.562;2022-09-23T01:57:26;8.70;61.10
12426;DHT22;6277;49.824;9.562;2022-09-23T02:00:00;8.60;60.20
12426;DHT22;6277;49.824;9.562;2022-09-23T02:02:35;8.60;60.60
12426;DHT22;6277;49.824;9.562;2022-09-23T02:05:18;8.60;60.60
12426;DHT22;6277;49.824;9.562;2022-09-23T02:10:26;8.50;60.50
12426;DHT22;6277;49.824;9.562;2022-09-23T02:12:57;8.50;60.30
12426;DHT22;6277;49.824;9.562;2022-09-23T02:15:32;8.50;60.60
12426;DHT22;6277;49.824;9.562;2022-09-23T02:18:23;8.50;60.90
12426;DHT22;6277;49.824;9.562;2022-09-23T02:20:53;8.50;61.50
12426;DHT22;6277;49.824;9.562;2022-09-23T02:23:31;8.50;60.80
12426;DHT22;6277;49.824;9.562;2022-09-23T02:39:31;8.50;61.60
12426;DHT22;6277;49.824;9.562;2022-09-23T02:42:05;8.50;61.40
12426;DHT22;6277;49.824;9.562;2022-09-23T02:44:32;8.50;61.30
12426;DHT22;6277;49.824;9.562;2022-09-23T02:46:57;8.40;61.10
12426;DHT22;6277;49.824;9.562;2022-09-23T02:49:31;8.40;61.10
12426;DHT22;6277;49.824;9.562;2022-09-23T02:51:59;8.40;61.60
12426;DHT22;6277;49.824;9.562;2022-09-23T02:54:27;8.40;61.40
12426;DHT22;6277;49.824;9.562;2022-09-23T02:56:53;8.40;61.30
12426;DHT22;6277;49.824;9.562;2022-09-23T02:59:21;8.40;61.20
12426;DHT22;6277;49.824;9.562;2022-09-23T03:02:09;8.40;61.40
12426;DHT22;6277;49.824;9.562;2022-09-23T03:07:33;8.30;62.00
12426;DHT22;6277;49.824;9.562;2022-09-23T03:10:14;8.30;61.90
12426;DHT22;6277;49.824;9.562;2022-09-23T03:15:48;8.30;62.00
12426;DHT22;6277;49.824;9.562;2022-09-23T03:21:15;8.30;61.70
12426;DHT22;6277;49.824;9.562;2022-09-23T03:23:45;8.30;62.00
12426;DHT22;6277;49.824;9.562;2022-09-23T03:26:17;8.30;61.70
12426;DHT22;6277;49.824;9.562;2022-09-23T03:28:44;8.20;61.80
12426;DHT22;6277;49.824;9.562;2022-09-23T03:31:13;8.20;61.70
12426;DHT22;6277;49.824;9.562;2022-09-23T03:33:46;8.20;62.00
12426;DHT22;6277;49.824;9.562;2022-09-23T03:36:14;8.10;61.90
12426;DHT22;6277;49.824;9.562;2022-09-23T03:39:11;8.10;61.80
12426;DHT22;6277;49.824;9.562;2022-09-23T03:41:46;8.10;61.90
12426;DHT22;6277;49.824;9.562;2022-09-23T03:44:16;8.00;62.00
12426;DHT22;6277;49.824;9.562;2022-09-23T03:46:42;8.00;61.80
12426;DHT22;6277;49.824;9.562;2022-09-23T03:49:16;8.00;61.80
12426;DHT22;6277;49.824;9.562;2022-09-23T03:51:42;8.00;62.00
12426;DHT22;6277;49.824;9.562;2022-09-23T03:54:07;7.90;61.90
12426;DHT22;6277;49.824;9.562;2022-09-23T03:56:34;7.90;62.00
12426;DHT22;6277;49.824;9.562;2022-09-23T03:58:59;7.90;62.00
12426;DHT22;6277;49.824;9.562;2022-09-23T04:01:25;7.80;62.00
12426;DHT22;6277;49.824;9.562;2022-09-23T04:03:51;7.80;62.00
12426;DHT22;6277;49.824;9.562;2022-09-23T04:06:18;7.80;62.10
12426;DHT22;6277;49.824;9.562;2022-09-23T04:08:43;7.80;62.10
12426;DHT22;6277;49.824;9.562;2022-09-23T04:11:09;7.70;62.10
12426;DHT22;6277;49.824;9.562;2022-09-23T04:13:34;7.70;62.10
12426;DHT22;6277;49.824;9.562;2022-09-23T04:16:00;7.70;62.20
12426;DHT22;6277;49.824;9.562;2022-09-23T04:18:26;7.70;62.30
12426;DHT22;6277;49.824;9.562;2022-09-23T04:20:56;7.60;62.20
12426;DHT22;6277;49.824;9.562;2022-09-23T04:23:23;7.60;62.50
12426;DHT22;6277;49.824;9.562;2022-09-23T04:25:49;7.60;62.40
12426;DHT22;6277;49.824;9.562;2022-09-23T04:28:15;7.60;62.40
12426;DHT22;6277;49.824;9.562;2022-09-23T04:30:41;7.50;62.40
12426;DHT22;6277;49.824;9.562;2022-09-23T04:33:11;7.50;62.40
12426;DHT22;6277;49.824;9.562;2022-09-23T04:35:38;7.50;62.50
12426;DHT22;6277;49.824;9.562;2022-09-23T04:38:06;7.50;62.40
12426;DHT22;6277;49.824;9.562;2022-09-23T04:40:32;7.50;62.60
12426;DHT22;6277;49.824;9.562;2022-09-23T04:42:58;7.40;62.40
12426;DHT22;6277;49.824;9.562;2022-09-23T04:45:23;7.40;62.60
12426;DHT22;6277;49.824;9.562;2022-09-23T04:47:49;7.40;62.60
12426;DHT22;6277;49.824;9.562;2022-09-23T04:50:15;7.40;62.70
12426;DHT22;6277;49.824;9.562;2022-09-23T04:52:41;7.40;62.80
12426;DHT22;6277;49.824;9.562;2022-09-23T04:55:07;7.40;63.00
12426;DHT22;6277;49.824;9.562;2022-09-23T04:57:32;7.50;63.10
12426;DHT22;6277;49.824;9.562;2022-09-23T04:59:59;7.50;63.20
12426;DHT22;6277;49.824;9.562;2022-09-23T05:02:25;7.50;63.20
12426;DHT22;6277;49.824;9.562;2022-09-23T05:04:50;7.50;63.20
12426;DHT22;6277;49.824;9.562;2022-09-23T05:07:16;7.50;63.20
12426;DHT22;6277;49.824;9.562;2022-09-23T05:09:43;7.50;63.20
12426;DHT22;6277;49.824;9.562;2022-09-23T05:12:09;7.50;63.20
12426;DHT22;6277;49.824;9.562;2022-09-23T05:14:34;7.50;63.20
12426;DHT22;6277;49.824;9.562;2022-09-23T05:17:00;7.50;63.20
12426;DHT22;6277;49.824;9.562;2022-09-23T05:19:26;7.50;63.20
12426;DHT22;6277;49.824;9.562;2022-09-23T05:21:51;7.50;63.30
12426;DHT22;6277;49.824;9.562;2022-09-23T05:24:17;7.50;63.30
12426;DHT22;6277;49.824;9.562;2022-09-23T05:26:43;7.50;63.30
12426;DHT22;6277;49.824;9.562;2022-09-23T05:29:09;7.50;63.30
12426;DHT22;6277;49.824;9.562;2022-09-23T05:31:34;7.50;63.30
12426;DHT22;6277;49.824;9.562;2022-09-23T05:34:03;7.50;63.40
12426;DHT22;6277;49.824;9.562;2022-09-23T05:36:31;7.50;63.50
12426;DHT22;6277;49.824;9.562;2022-09-23T05:38:57;7.50;63.50
12426;DHT22;6277;49.824;9.562;2022-09-23T05:41:24;7.60;63.50
12426;DHT22;6277;49.824;9.562;2022-09-23T05:43:51;7.60;63.70
12426;DHT22;6277;49.824;9.562;2022-09-23T05:46:24;7.60;63.70
12426;DHT22;6277;49.824;9.562;2022-09-23T05:48:53;7.60;63.80
12426;DHT22;6277;49.824;9.562;2022-09-23T05:51:21;7.70;63.90
12426;DHT22;6277;49.824;9.562;2022-09-23T05:53:49;7.70;64.00
12426;DHT22;6277;49.824;9.562;2022-09-23T05:56:19;7.70;64.00
12426;DHT22;6277;49.824;9.562;2022-09-23T05:58:46;7.70;64.00
12426;DHT22;6277;49.824;9.562;2022-09-23T06:01:17;7.80;64.10
12426;DHT22;6277;49.824;9.562;2022-09-23T06:03:46;7.80;64.30
12426;DHT22;6277;49.824;9.562;2022-09-23T06:06:13;7.90;64.30
12426;DHT22;6277;49.824;9.562;2022-09-23T06:08:40;8.00;64.30
12426;DHT22;6277;49.824;9.562;2022-09-23T06:11:06;8.00;64.30
12426;DHT22;6277;49.824;9.562;2022-09-23T06:13:33;8.10;64.50
12426;DHT22;6277;49.824;9.562;2022-09-23T06:16:00;8.10;64.50
12426;DHT22;6277;49.824;9.562;2022-09-23T06:18:26;8.20;64.50
12426;DHT22;6277;49.824;9.562;2022-09-23T06:20:51;8.20;64.50
12426;DHT22;6277;49.824;9.562;2022-09-23T06:23:17;8.30;64.60
12426;DHT22;6277;49.824;9.562;2022-09-23T06:25:42;8.40;64.60
12426;DHT22;6277;49.824;9.562;2022-09-23T06:28:08;8.40;64.60
12426;DHT22;6277;49.824;9.562;2022-09-23T06:30:35;8.50;64.70
12426;DHT22;6277;49.824;9.562;2022-09-23T06:33:01;8.60;64.80
12426;DHT22;6277;49.824;9.562;2022-09-23T06:35:27;8.70;64.90
12426;DHT22;6277;49.824;9.562;2022-09-23T06:37:53;8.80;64.90
12426;DHT22;6277;49.824;9.562;2022-09-23T06:40:20;8.80;64.90
12426;DHT22;6277;49.824;9.562;2022-09-23T06:42:46;8.90;64.90
12426;DHT22;6277;49.824;9.562;2022-09-23T06:45:13;9.00;65.00
12426;DHT22;6277;49.824;9.562;2022-09-23T06:47:43;9.10;65.10
12426;DHT22;6277;49.824;9.562;2022-09-23T06:50:10;9.20;65.10
12426;DHT22;6277;49.824;9.562;2022-09-23T06:52:37;9.30;65.10
12426;DHT22;6277;49.824;9.562;2022-09-23T06:55:02;9.40;65.20
12426;DHT22;6277;49.824;9.562;2022-09-23T06:57:31;9.50;65.20
12426;DHT22;6277;49.824;9.562;2022-09-23T06:59:57;9.60;65.40
12426;DHT22;6277;49.824;9.562;2022-09-23T07:02:24;9.70;65.30
12426;DHT22;6277;49.824;9.562;2022-09-23T07:04:51;9.80;65.50
12426;DHT22;6277;49.824;9.562;2022-09-23T07:07:16;9.90;65.60
12426;DHT22;6277;49.824;9.562;2022-09-23T07:09:43;10.00;65.60
12426;DHT22;6277;49.824;9.562;2022-09-23T07:12:08;10.20;65.90
12426;DHT22;6277;49.824;9.562;2022-09-23T07:14:34;10.30;65.90
12426;DHT22;6277;49.824;9.562;2022-09-23T07:17:00;10.50;66.10
12426;DHT22;6277;49.824;9.562;2022-09-23T07:19:26;10.70;66.10
12426;DHT22;6277;49.824;9.562;2022-09-23T07:21:51;10.80;66.20
12426;DHT22;6277;49.824;9.562;2022-09-23T07:24:17;11.00;66.20
12426;DHT22;6277;49.824;9.562;2022-09-23T07:26:42;11.20;66.20
12426;DHT22;6277;49.824;9.562;2022-09-23T07:29:12;11.40;66.10
12426;DHT22;6277;49.824;9.562;2022-09-23T07:31:38;11.50;66.20
12426;DHT22;6277;49.824;9.562;2022-09-23T07:34:04;11.70;65.90
12426;DHT22;6277;49.824;9.562;2022-09-23T07:36:30;11.80;65.80
12426;DHT22;6277;49.824;9.562;2022-09-23T07:38:57;12.00;65.80
12426;DHT22;6277;49.824;9.562;2022-09-23T07:41:26;12.20;65.70
12426;DHT22;6277;49.824;9.562;2022-09-23T07:43:54;12.30;65.50
12426;DHT22;6277;49.824;9.562;2022-09-23T07:46:24;12.40;65.50
12426;DHT22;6277;49.824;9.562;2022-09-23T07:48:50;12.50;65.20
12426;DHT22;6277;49.824;9.562;2022-09-23T07:51:20;12.70;65.00
12426;DHT22;6277;49.824;9.562;2022-09-23T07:53:48;12.80;64.90
12426;DHT22;6277;49.824;9.562;2022-09-23T07:56:13;12.90;64.70
12426;DHT22;6277;49.824;9.562;2022-09-23T07:58:39;13.00;64.60
12426;DHT22;6277;49.824;9.562;2022-09-23T08:01:07;13.00;64.50
12426;DHT22;6277;49.824;9.562;2022-09-23T08:03:33;13.10;64.40
12426;DHT22;6277;49.824;9.562;2022-09-23T08:06:08;13.20;64.30
12426;DHT22;6277;49.824;9.562;2022-09-23T08:08:35;13.30;64.20
12426;DHT22;6277;49.824;9.562;2022-09-23T08:11:02;13.30;64.00
12426;DHT22;6277;49.824;9.562;2022-09-23T08:13:28;13.40;64.00
12426;DHT22;6277;49.824;9.562;2022-09-23T08:15:55;13.50;64.00
12426;DHT22;6277;49.824;9.562;2022-09-23T08:18:20;13.50;63.90
12426;DHT22;6277;49.824;9.562;2022-09-23T08:20:46;13.60;63.90
12426;DHT22;6277;49.824;9.562;2022-09-23T08:23:13;13.60;64.40
12426;DHT22;6277;49.824;9.562;2022-09-23T08:25:42;13.70;63.70
12426;DHT22;6277;49.824;9.562;2022-09-23T08:28:10;13.70;63.50
12426;DHT22;6277;49.824;9.562;2022-09-23T08:30:40;13.80;63.40
12426;DHT22;6277;49.824;9.562;2022-09-23T08:33:06;13.80;63.40
12426;DHT22;6277;49.824;9.562;2022-09-23T08:35:31;13.80;63.40
12426;DHT22;6277;49.824;9.562;2022-09-23T08:37:57;13.90;63.50
12426;DHT22;6277;49.824;9.562;2022-09-23T08:40:23;13.90;63.40
12426;DHT22;6277;49.824;9.562;2022-09-23T08:42:48;14.00;63.30
12426;DHT22;6277;49.824;9.562;2022-09-23T08:45:22;14.00;63.20
12426;DHT22;6277;49.824;9.562;2022-09-23T08:48:05;14.00;63.20
12426;DHT22;6277;49.824;9.562;2022-09-23T08:50:41;14.10;63.20
12426;DHT22;6277;49.824;9.562;2022-09-23T08:53:37;14.10;63.20
12426;DHT22;6277;49.824;9.562;2022-09-23T08:56:15;14.20;63.30
12426;DHT22;6277;49.824;9.562;2022-09-23T09:01:42;14.40;63.30
12426;DHT22;6277;49.824;9.562;2022-09-23T09:06:43;14.50;63.40
12426;DHT22;6277;49.824;9.562;2022-09-23T09:09:20;14.60;63.30
12426;DHT22;6277;49.824;9.562;2022-09-23T09:11:50;14.70;63.10
12426;DHT22;6277;49.824;9.562;2022-09-23T09:14:36;14.90;63.30
12426;DHT22;6277;49.824;9.562;2022-09-23T09:17:10;15.00;63.20
12426;DHT22;6277;49.824;9.562;2022-09-23T09:22:57;15.30;62.90
12426;DHT22;6277;49.824;9.562;2022-09-23T09:28:03;15.50;62.40
12426;DHT22;6277;49.824;9.562;2022-09-23T09:30:35;15.60;62.40
12426;DHT22;6277;49.824;9.562;2022-09-23T09:33:03;15.70;62.20
12426;DHT22;6277;49.824;9.562;2022-09-23T09:35:37;15.70;62.00
12426;DHT22;6277;49.824;9.562;2022-09-23T09:38:04;15.80;61.70
12426;DHT22;6277;49.824;9.562;2022-09-23T09:40:31;15.80;61.70
12426;DHT22;6277;49.824;9.562;2022-09-23T09:42:59;15.90;61.60
12426;DHT22;6277;49.824;9.562;2022-09-23T09:48:22;15.90;61.10
12426;DHT22;6277;49.824;9.562;2022-09-23T09:50:52;15.90;61.10
12426;DHT22;6277;49.824;9.562;2022-09-23T09:53:26;15.90;61.30
12426;DHT22;6277;49.824;9.562;2022-09-23T09:58:22;16.00;61.10
12426;DHT22;6277;49.824;9.562;2022-09-23T10:00:50;16.00;61.30
12426;DHT22;6277;49.824;9.562;2022-09-23T10:03:24;16.10;61.30
12426;DHT22;6277;49.824;9.562;2022-09-23T10:05:51;16.10;61.20
12426;DHT22;6277;49.824;9.562;2022-09-23T10:08:29;16.20;61.10
12426;DHT22;6277;49.824;9.562;2022-09-23T10:11:16;16.30;61.10
12426;DHT22;6277;49.824;9.562;2022-09-23T10:16:36;16.40;60.70
12426;DHT22;6277;49.824;9.562;2022-09-23T10:19:13;16.40;61.10
12426;DHT22;6277;49.824;9.562;2022-09-23T10:21:41;16.50;60.60
12426;DHT22;6277;49.824;9.562;2022-09-23T10:24:15;16.50;60.80
12426;DHT22;6277;49.824;9.562;2022-09-23T10:26:52;16.60;60.80
12426;DHT22;6277;49.824;9.562;2022-09-23T10:29:29;16.70;60.50
12426;DHT22;6277;49.824;9.562;2022-09-23T10:34:46;16.90;60.20
12426;DHT22;6277;49.824;9.562;2022-09-23T10:37:20;17.00;60.40
12426;DHT22;6277;49.824;9.562;2022-09-23T10:39:47;17.10;60.30
12426;DHT22;6277;49.824;9.562;2022-09-23T10:42:39;17.10;60.30
12426;DHT22;6277;49.824;9.562;2022-09-23T10:45:26;17.20;60.40
12426;DHT22;6277;49.824;9.562;2022-09-23T10:51:27;17.50;59.80
12426;DHT22;6277;49.824;9.562;2022-09-23T10:54:01;17.60;59.90
12426;DHT22;6277;49.824;9.562;2022-09-23T10:56:42;17.70;60.30
12426;DHT22;6277;49.824;9.562;2022-09-23T10:59:21;17.80;59.80
12426;DHT22;6277;49.824;9.562;2022-09-23T11:02:21;17.90;59.70
12426;DHT22;6277;49.824;9.562;2022-09-23T11:05:06;18.00;59.40
12426;DHT22;6277;49.824;9.562;2022-09-23T11:07:47;18.20;59.40
12426;DHT22;6277;49.824;9.562;2022-09-23T11:21:48;18.70;58.90
12426;DHT22;6277;49.824;9.562;2022-09-23T11:33:07;19.10;57.80
12426;DHT22;6277;49.824;9.562;2022-09-23T11:35:52;19.20;57.70
12426;DHT22;6277;49.824;9.562;2022-09-23T11:38:39;19.30;58.00
12426;DHT22;6277;49.824;9.562;2022-09-23T11:41:20;19.40;57.30
12426;DHT22;6277;49.824;9.562;2022-09-23T11:43:53;19.50;57.10
12426;DHT22;6277;49.824;9.562;2022-09-23T11:46:28;19.50;57.30
12426;DHT22;6277;49.824;9.562;2022-09-23T11:56:44;19.90;57.00
12426;DHT22;6277;49.824;9.562;2022-09-23T11:59:27;20.00;56.60
12426;DHT22;6277;49.824;9.562;2022-09-23T12:02:21;20.10;56.70
12426;DHT22;6277;49.824;9.562;2022-09-23T12:04:50;20.30;56.60
12426;DHT22;6277;49.824;9.562;2022-09-23T12:07:29;20.40;56.20
12426;DHT22;6277;49.824;9.562;2022-09-23T12:10:04;20.50;55.70
12426;DHT22;6277;49.824;9.562;2022-09-23T12:12:40;20.60;55.50
12426;DHT22;6277;49.824;9.562;2022-09-23T12:27:55;21.10;54.70
12426;DHT22;6277;49.824;9.562;2022-09-23T12:30:03;21.20;55.10
12426;DHT22;6277;49.824;9.562;2022-09-23T12:32:30;21.30;54.70
12426;DHT22;6277;49.824;9.562;2022-09-23T12:34:56;21.40;55.10
12426;DHT22;6277;49.824;9.562;2022-09-23T12:37:25;21.50;54.80
12426;DHT22;6277;49.824;9.562;2022-09-23T12:39:52;21.60;54.40
12426;DHT22;6277;49.824;9.562;2022-09-23T12:42:20;21.70;54.40
12426;DHT22;6277;49.824;9.562;2022-09-23T12:44:48;21.80;54.10
12426;DHT22;6277;49.824;9.562;2022-09-23T12:49:40;21.90;54.50
12426;DHT22;6277;49.824;9.562;2022-09-23T12:54:51;22.10;53.30
12426;DHT22;6277;49.824;9.562;2022-09-23T13:05:32;22.60;52.70
12426;DHT22;6277;49.824;9.562;2022-09-23T13:08:24;22.70;53.10
12426;DHT22;6277;49.824;9.562;2022-09-23T13:10:54;22.90;52.70
12426;DHT22;6277;49.824;9.562;2022-09-23T13:13:27;23.00;52.00
12426;DHT22;6277;49.824;9.562;2022-09-23T13:16:25;23.10;51.80
12426;DHT22;6277;49.824;9.562;2022-09-23T13:29:41;23.70;51.60
12426;DHT22;6277;49.824;9.562;2022-09-23T13:32:18;23.80;50.80
12426;DHT22;6277;49.824;9.562;2022-09-23T13:34:59;24.00;50.60
12426;DHT22;6277;49.824;9.562;2022-09-23T13:37:45;24.00;50.40
12426;DHT22;6277;49.824;9.562;2022-09-23T13:43:07;24.20;50.20
12426;DHT22;6277;49.824;9.562;2022-09-23T13:45:38;24.40;50.20
12426;DHT22;6277;49.824;9.562;2022-09-23T13:48:10;24.50;50.40
12426;DHT22;6277;49.824;9.562;2022-09-23T13:50:38;24.50;49.90
12426;DHT22;6277;49.824;9.562;2022-09-23T13:53:08;24.60;49.70
12426;DHT22;6277;49.824;9.562;2022-09-23T13:55:36;24.60;49.20
12426;DHT22;6277;49.824;9.562;2022-09-23T13:58:20;24.60;49.60
12426;DHT22;6277;49.824;9.562;2022-09-23T14:00:46;24.70;48.50
12426;DHT22;6277;49.824;9.562;2022-09-23T14:03:35;24.80;49.40
12426;DHT22;6277;49.824;9.562;2022-09-23T14:06:06;24.80;48.60
12426;DHT22;6277;49.824;9.562;2022-09-23T14:08:33;24.90;48.90
12426;DHT22;6277;49.824;9.562;2022-09-23T14:10:58;24.90;48.90
12426;DHT22;6277;49.824;9.562;2022-09-23T14:13:34;25.00;48.70
12426;DHT22;6277;49.824;9.562;2022-09-23T14:16:01;25.00;47.90
12426;DHT22;6277;49.824;9.562;2022-09-23T14:18:34;25.20;48.70
12426;DHT22;6277;49.824;9.562;2022-09-23T14:21:01;25.20;47.80
12426;DHT22;6277;49.824;9.562;2022-09-23T14:23:27;25.30;48.30
12426;DHT22;6277;49.824;9.562;2022-09-23T14:25:53;25.30;48.20
12426;DHT22;6277;49.824;9.562;2022-09-23T14:28:21;25.30;47.80
12426;DHT22;6277;49.824;9.562;2022-09-23T14:30:49;25.30;47.20
12426;DHT22;6277;49.824;9.562;2022-09-23T14:33:29;25.30;47.20
12426;DHT22;6277;49.824;9.562;2022-09-23T14:36:21;25.20;46.40
12426;DHT22;6277;49.824;9.562;2022-09-23T14:39:10;25.20;46.90
12426;DHT22;6277;49.824;9.562;2022-09-23T14:41:41;25.20;46.90
12426;DHT22;6277;49.824;9.562;2022-09-23T14:44:20;25.10;47.10
12426;DHT22;6277;49.824;9.562;2022-09-23T14:46:55;25.10;46.50
12426;DHT22;6277;49.824;9.562;2022-09-23T14:49:22;25.10;46.40
12426;DHT22;6277;49.824;9.562;2022-09-23T14:51:51;25.10;47.00
12426;DHT22;6277;49.824;9.562;2022-09-23T14:56:55;25.10;46.60
12426;DHT22;6277;49.824;9.562;2022-09-23T14:59:36;25.20;47.00
12426;DHT22;6277;49.824;9.562;2022-09-23T15:05:14;25.30;46.00
12426;DHT22;6277;49.824;9.562;2022-09-23T15:07:41;25.40;46.20
12426;DHT22;6277;49.824;9.562;2022-09-23T15:10:25;25.60;47.10
12426;DHT22;6277;49.824;9.562;2022-09-23T15:12:53;25.70;45.90
12426;DHT22;6277;49.824;9.562;2022-09-23T15:15:23;25.80;46.10
12426;DHT22;6277;49.824;9.562;2022-09-23T15:17:52;25.90;45.50
12426;DHT22;6277;49.824;9.562;2022-09-23T15:20:23;25.90;45.60
12426;DHT22;6277;49.824;9.562;2022-09-23T15:22:51;25.90;44.60
12426;DHT22;6277;49.824;9.562;2022-09-23T15:25:34;25.80;44.60
12426;DHT22;6277;49.824;9.562;2022-09-23T15:30:36;25.60;44.30
12426;DHT22;6277;49.824;9.562;2022-09-23T15:33:02;25.60;44.80
12426;DHT22;6277;49.824;9.562;2022-09-23T15:35:29;25.50;44.90
12426;DHT22;6277;49.824;9.562;2022-09-23T15:37:57;25.60;45.10
12426;DHT22;6277;49.824;9.562;2022-09-23T15:42:57;25.70;45.50
12426;DHT22;6277;49.824;9.562;2022-09-23T15:45:37;25.80;44.60
12426;DHT22;6277;49.824;9.562;2022-09-23T15:48:12;25.80;44.70
12426;DHT22;6277;49.824;9.562;2022-09-23T15:50:38;25.80;44.20
12426;DHT22;6277;49.824;9.562;2022-09-23T15:53:05;25.70;44.40
12426;DHT22;6277;49.824;9.562;2022-09-23T15:55:31;25.70;44.20
12426;DHT22;6277;49.824;9.562;2022-09-23T15:57:58;25.60;44.30
12426;DHT22;6277;49.824;9.562;2022-09-23T16:00:24;25.50;44.30
12426;DHT22;6277;49.824;9.562;2022-09-23T16:02:50;25.40;44.10
12426;DHT22;6277;49.824;9.562;2022-09-23T16:05:28;25.30;44.10
12426;DHT22;6277;49.824;9.562;2022-09-23T16:07:57;25.20;44.10
12426;DHT22;6277;49.824;9.562;2022-09-23T16:10:23;25.10;44.30
12426;DHT22;6277;49.824;9.562;2022-09-23T16:12:51;24.90;44.30
12426;DHT22;6277;49.824;9.562;2022-09-23T16:15:19;24.80;44.20
12426;DHT22;6277;49.824;9.562;2022-09-23T16:17:45;24.60;44.20
12426;DHT22;6277;49.824;9.562;2022-09-23T16:20:12;24.40;44.40
12426;DHT22;6277;49.824;9.562;2022-09-23T16:22:40;24.20;44.50
12426;DHT22;6277;49.824;9.562;2022-09-23T16:25:10;24.10;44.60
12426;DHT22;6277;49.824;9.562;2022-09-23T16:27:36;23.90;44.50
12426;DHT22;6277;49.824;9.562;2022-09-23T16:30:01;23.70;44.70
12426;DHT22;6277;49.824;9.562;2022-09-23T16:32:27;23.50;44.80
12426;DHT22;6277;49.824;9.562;2022-09-23T16:34:53;23.30;44.90
12426;DHT22;6277;49.824;9.562;2022-09-23T16:37:18;23.10;44.90
12426;DHT22;6277;49.824;9.562;2022-09-23T16:39:47;22.90;45.00
12426;DHT22;6277;49.824;9.562;2022-09-23T16:42:13;22.70;45.20
12426;DHT22;6277;49.824;9.562;2022-09-23T16:44:39;22.50;45.40
12426;DHT22;6277;49.824;9.562;2022-09-23T16:47:06;22.20;45.50
12426;DHT22;6277;49.824;9.562;2022-09-23T16:49:31;22.00;45.70
12426;DHT22;6277;49.824;9.562;2022-09-23T16:51:57;21.80;45.90
12426;DHT22;6277;49.824;9.562;2022-09-23T16:54:22;21.60;46.00
12426;DHT22;6277;49.824;9.562;2022-09-23T16:56:49;21.40;46.20
12426;DHT22;6277;49.824;9.562;2022-09-23T16:59:15;21.30;46.50
12426;DHT22;6277;49.824;9.562;2022-09-23T17:01:41;21.10;46.60
12426;DHT22;6277;49.824;9.562;2022-09-23T17:04:25;20.90;46.80
12426;DHT22;6277;49.824;9.562;2022-09-23T17:06:52;20.70;46.90
12426;DHT22;6277;49.824;9.562;2022-09-23T17:09:21;20.60;47.10
12426;DHT22;6277;49.824;9.562;2022-09-23T17:11:54;20.40;47.30
12426;DHT22;6277;49.824;9.562;2022-09-23T17:14:22;20.20;47.50
12426;DHT22;6277;49.824;9.562;2022-09-23T17:16:48;20.10;47.60
12426;DHT22;6277;49.824;9.562;2022-09-23T17:19:14;19.90;47.80
12426;DHT22;6277;49.824;9.562;2022-09-23T17:21:39;19.80;48.00
12426;DHT22;6277;49.824;9.562;2022-09-23T17:24:05;19.70;48.20
12426;DHT22;6277;49.824;9.562;2022-09-23T17:26:31;19.60;48.40
12426;DHT22;6277;49.824;9.562;2022-09-23T17:28:57;19.40;48.60
12426;DHT22;6277;49.824;9.562;2022-09-23T17:31:25;19.20;48.70
12426;DHT22;6277;49.824;9.562;2022-09-23T17:33:52;19.10;48.90
12426;DHT22;6277;49.824;9.562;2022-09-23T17:36:18;19.00;49.00
12426;DHT22;6277;49.824;9.562;2022-09-23T17:38:45;18.80;49.10
12426;DHT22;6277;49.824;9.562;2022-09-23T17:41:12;18.70;49.40
12426;DHT22;6277;49.824;9.562;2022-09-23T17:43:38;18.60;49.50
12426;DHT22;6277;49.824;9.562;2022-09-23T17:46:06;18.50;49.70
12426;DHT22;6277;49.824;9.562;2022-09-23T17:48:35;18.30;50.00
12426;DHT22;6277;49.824;9.562;2022-09-23T17:51:10;18.20;50.10
12426;DHT22;6277;49.824;9.562;2022-09-23T17:53:38;18.10;50.60
12426;DHT22;6277;49.824;9.562;2022-09-23T17:58:36;17.90;50.70
12426;DHT22;6277;49.824;9.562;2022-09-23T18:01:03;17.80;50.60
12426;DHT22;6277;49.824;9.562;2022-09-23T18:03:32;17.70;50.90
12426;DHT22;6277;49.824;9.562;2022-09-23T18:06:11;17.60;51.10
12426;DHT22;6277;49.824;9.562;2022-09-23T18:08:37;17.50;51.60
12426;DHT22;6277;49.824;9.562;2022-09-23T18:13:54;17.40;52.00
12426;DHT22;6277;49.824;9.562;2022-09-23T18:16:22;17.40;52.10
12426;DHT22;6277;49.824;9.562;2022-09-23T18:18:59;17.30;51.80
12426;DHT22;6277;49.824;9.562;2022-09-23T18:21:30;17.30;52.20
12426;DHT22;6277;49.824;9.562;2022-09-23T18:23:57;17.30;52.10
12426;DHT22;6277;49.824;9.562;2022-09-23T18:26:24;17.20;52.00
12426;DHT22;6277;49.824;9.562;2022-09-23T18:28:50;17.20;52.10
12426;DHT22;6277;49.824;9.562;2022-09-23T18:31:18;17.20;52.20
12426;DHT22;6277;49.824;9.562;2022-09-23T18:33:51;17.20;52.20
12426;DHT22;6277;49.824;9.562;2022-09-23T18:36:18;17.20;52.80
12426;DHT22;6277;49.824;9.562;2022-09-23T18:38:44;17.20;53.00
12426;DHT22;6277;49.824;9.562;2022-09-23T18:41:10;17.20;52.50
12426;DHT22;6277;49.824;9.562;2022-09-23T18:43:36;17.10;52.50
12426;DHT22;6277;49.824;9.562;2022-09-23T18:46:06;17.10;52.50
12426;DHT22;6277;49.824;9.562;2022-09-23T18:48:33;17.10;52.90
12426;DHT22;6277;49.824;9.562;2022-09-23T18:51:18;17.10;52.80
12426;DHT22;6277;49.824;9.562;2022-09-23T18:53:45;17.00;52.80